createdAt,value
2018-07-04T00:01:35.275Z,78.33
2018-07-04T00:04:15.159Z,79.35
2018-07-04T00:07:01.083Z,78.32
2018-07-04T00:09:46.779Z,79.50
2018-07-04T00:12:32.645Z,79.48
2018-07-04T00:15:18.423Z,80.03
2018-07-04T00:17:58.254Z,78.70
2018-07-04T00:20:43.916Z,78.76
2018-07-04T00:23:29.723Z,79.94
2018-07-04T00:26:15.579Z,78.80
2018-07-04T00:29:01.593Z,77.44
2018-07-04T00:31:47.443Z,78.18
2018-07-04T00:34:33.476Z,81.59
2018-07-04T00:37:19.573Z,80.89
2018-07-04T00:40:05.768Z,79.78
2018-07-04T00:42:51.437Z,81.16
2018-07-04T00:45:43.347Z,81.42
2018-07-04T00:48:29.066Z,80.89
2018-07-04T00:51:14.803Z,80.69
2018-07-04T00:53:54.769Z,82.60
2018-07-04T00:56:40.398Z,81.58
2018-07-04T00:59:25.942Z,83.49
2018-07-04T01:02:11.619Z,83.06
2018-07-04T01:04:57.272Z,83.54
2018-07-04T01:07:43.015Z,81.60
2018-07-04T01:10:28.643Z,80.29
2018-07-04T01:13:14.503Z,80.77
2018-07-04T01:16:00.154Z,80.81
2018-07-04T01:18:46.186Z,79.78
2018-07-04T01:21:31.866Z,81.79
2018-07-04T01:24:17.660Z,80.11
2018-07-04T01:27:03.288Z,83.57
2018-07-04T01:29:43.397Z,83.05
2018-07-04T01:32:29.118Z,81.75
2018-07-04T01:35:15.080Z,81.93
2018-07-04T01:38:00.679Z,81.65
2018-07-04T01:40:46.759Z,81.16
2018-07-04T01:43:26.588Z,80.39
2018-07-04T01:46:12.902Z,80.84
2018-07-04T01:48:58.452Z,80.06
2018-07-04T01:51:44.387Z,81.28
2018-07-04T01:54:30.062Z,79.30
2018-07-04T01:57:15.862Z,80.53
2018-07-04T02:00:01.549Z,83.47
2018-07-04T02:02:47.212Z,83.54
2018-07-04T02:05:27.003Z,82.56
2018-07-04T02:08:12.847Z,83.53
2018-07-04T02:10:58.460Z,82.76
2018-07-04T02:13:44.648Z,81.60
2018-07-04T02:16:30.303Z,79.94
2018-07-04T02:19:16.330Z,81.29
2018-07-04T02:22:02.147Z,82.56
2018-07-04T02:24:48.207Z,80.36
2018-07-04T02:27:33.978Z,79.43
2018-07-04T02:30:19.788Z,79.18
2018-07-04T02:33:05.471Z,79.25
2018-07-04T02:35:51.433Z,80.25
2018-07-04T02:38:37.253Z,79.58
2018-07-04T02:41:23.555Z,80.04
2018-07-04T02:44:09.136Z,79.38
2018-07-04T02:46:55.231Z,81.05
2018-07-04T02:49:41.004Z,82.20
2018-07-04T02:52:27.116Z,80.90
2018-07-04T02:55:12.714Z,81.50
2018-07-04T02:57:58.628Z,81.08
2018-07-04T03:00:44.539Z,82.40
2018-07-04T03:03:30.216Z,81.60
2018-07-04T03:06:10.080Z,81.25
2018-07-04T03:08:56.011Z,80.12
2018-07-04T03:11:35.879Z,81.70
2018-07-04T03:14:21.951Z,83.04
2018-07-04T03:17:07.609Z,82.29
2018-07-04T03:19:53.641Z,83.19
2018-07-04T03:22:39.543Z,82.18
2018-07-04T03:25:25.311Z,81.68
2018-07-04T03:28:10.868Z,81.45
2018-07-04T03:30:56.956Z,81.24
2018-07-04T03:33:42.703Z,82.48
2018-07-04T03:36:28.687Z,82.62
2018-07-04T03:39:14.532Z,81.85
2018-07-04T03:42:00.123Z,82.12
2018-07-04T03:44:45.657Z,82.21
2018-07-04T03:47:25.886Z,81.20
2018-07-04T03:50:11.571Z,79.63
2018-07-04T03:52:57.563Z,77.50
2018-07-04T03:55:37.446Z,75.65
2018-07-04T03:58:23.611Z,73.71
2018-07-04T04:01:09.412Z,76.92
2018-07-04T04:03:55.292Z,75.37
2018-07-04T04:06:35.193Z,77.99
2018-07-04T04:09:20.820Z,79.31
2018-07-04T04:12:06.323Z,77.50
2018-07-04T04:14:52.116Z,79.42
2018-07-04T04:17:37.890Z,79.87
2018-07-04T04:20:23.788Z,77.19
2018-07-04T04:23:09.386Z,75.80
2018-07-04T04:25:55.356Z,73.12
2018-07-04T04:28:41.125Z,72.02
2018-07-04T04:31:27.024Z,69.91
2018-07-04T04:34:12.803Z,70.77
2018-07-04T04:36:58.390Z,69.60
2018-07-04T04:39:44.134Z,67.26
2018-07-04T04:42:29.904Z,66.73
2018-07-04T04:45:15.467Z,71.18
2018-07-04T04:48:01.360Z,72.10
2018-07-04T04:50:46.941Z,69.53
2018-07-04T04:53:32.927Z,69.92
2018-07-04T04:56:18.724Z,70.04
2018-07-04T04:59:04.709Z,70.45
2018-07-04T05:01:50.512Z,68.65
2018-07-04T05:04:36.589Z,66.96
2018-07-04T05:07:22.100Z,67.89
2018-07-04T05:10:02.425Z,66.80
2018-07-04T05:12:48.299Z,67.61
2018-07-04T05:15:34.308Z,68.44
2018-07-04T05:18:20.121Z,67.78
2018-07-04T05:21:06.104Z,67.39
2018-07-04T05:23:53.128Z,66.16
2018-07-04T05:26:39.215Z,67.27
2018-07-04T05:29:25.069Z,67.48
2018-07-04T05:32:10.955Z,67.81
2018-07-04T05:34:56.504Z,65.68
2018-07-04T05:37:42.086Z,66.53
2018-07-04T05:40:27.472Z,64.60
2018-07-04T05:43:12.955Z,64.59
2018-07-04T05:46:04.510Z,65.57
2018-07-04T05:48:50.101Z,63.29
2018-07-04T05:51:35.669Z,62.60
2018-07-04T05:54:21.352Z,62.41
2018-07-04T05:57:06.927Z,62.72
2018-07-04T05:59:46.737Z,62.43
2018-07-04T06:02:32.595Z,63.44
2018-07-04T06:05:18.110Z,63.13
2018-07-04T06:08:03.907Z,62.51
2018-07-04T06:10:49.654Z,61.96
2018-07-04T06:13:35.384Z,61.79
2018-07-04T06:16:21.064Z,60.72
2018-07-04T06:19:06.835Z,60.14
2018-07-04T06:21:52.422Z,58.85
2018-07-04T06:24:38.299Z,59.37
2018-07-04T06:27:24.204Z,59.02
2018-07-04T06:30:10.033Z,58.42
2018-07-04T06:32:49.862Z,58.39
2018-07-04T06:35:35.659Z,58.38
2018-07-04T06:38:02.577Z,57.05
2018-07-04T06:40:29.556Z,55.18
2018-07-04T06:42:56.970Z,53.92
2018-07-04T06:45:30.128Z,54.11
2018-07-04T06:47:57.092Z,56.28
2018-07-04T06:50:24.007Z,54.92
2018-07-04T06:52:51.109Z,54.10
2018-07-04T06:55:18.032Z,52.91
2018-07-04T06:57:44.968Z,54.08
2018-07-04T07:00:11.940Z,51.55
2018-07-04T07:02:38.896Z,50.32
2018-07-04T07:05:24.461Z,52.09
2018-07-04T07:08:10.092Z,52.74
2018-07-04T07:10:50.002Z,49.92
2018-07-04T07:13:35.854Z,49.03
2018-07-04T07:16:21.686Z,50.99
2018-07-04T07:19:07.370Z,49.50
2018-07-04T07:21:53.487Z,51.95
2018-07-04T07:24:39.263Z,48.31
2018-07-04T07:27:19.167Z,51.13
2018-07-04T07:30:04.784Z,52.04
2018-07-04T07:32:50.537Z,50.86
2018-07-04T07:35:36.054Z,49.13
2018-07-04T07:38:21.810Z,50.49
2018-07-04T07:41:07.559Z,50.33
2018-07-04T07:43:53.462Z,48.04
2018-07-04T07:46:39.044Z,47.48
2018-07-04T07:49:24.679Z,46.05
2018-07-04T07:52:10.560Z,46.28
2018-07-04T07:54:56.298Z,45.65
2018-07-04T07:57:41.884Z,46.95
2018-07-04T08:00:27.627Z,47.28
2018-07-04T08:03:13.391Z,46.52
2018-07-04T08:05:59.043Z,45.87
2018-07-04T08:08:44.529Z,45.83
2018-07-04T08:11:30.348Z,46.24
2018-07-04T08:14:16.103Z,46.37
2018-07-04T08:17:01.685Z,45.44
2018-07-04T08:19:47.401Z,44.96
2018-07-04T08:22:33.060Z,45.10
2018-07-04T08:25:18.664Z,45.18
2018-07-04T08:27:58.671Z,44.27
2018-07-04T08:30:44.394Z,44.53
2018-07-04T08:33:30.263Z,44.94
2018-07-04T08:36:16.140Z,43.79
2018-07-04T08:39:01.755Z,43.96
2018-07-04T08:41:47.305Z,42.77
2018-07-04T08:44:33.068Z,44.48
2018-07-04T08:47:18.824Z,48.33
2018-07-04T08:49:58.522Z,40.17
2018-07-04T08:52:44.102Z,40.01
2018-07-04T08:55:30.063Z,39.28
2018-07-04T08:58:15.576Z,39.46
2018-07-04T09:01:01.259Z,39.40
2018-07-04T09:03:46.963Z,38.62
2018-07-04T09:06:32.723Z,39.04
2018-07-04T09:09:18.401Z,37.99
2018-07-04T09:12:04.029Z,38.35
2018-07-04T09:14:49.501Z,38.95
2018-07-04T09:17:35.229Z,39.46
2018-07-04T09:20:15.160Z,38.15
2018-07-04T09:23:00.803Z,39.11
2018-07-04T09:25:46.459Z,37.82
2018-07-04T09:28:32.244Z,36.64
2018-07-04T09:31:17.716Z,37.69
2018-07-04T09:33:57.354Z,36.96
2018-07-04T09:36:37.256Z,35.87
2018-07-04T09:39:17.029Z,34.85
2018-07-04T09:42:03.043Z,36.90
2018-07-04T09:44:48.567Z,36.81
2018-07-04T09:47:34.235Z,35.05
2018-07-04T09:50:19.962Z,34.01
2018-07-04T09:53:05.655Z,33.97
2018-07-04T09:55:51.463Z,32.56
2018-07-04T09:58:37.255Z,32.34
2018-07-04T10:01:25.345Z,30.83
2018-07-04T10:04:11.176Z,33.60
2018-07-04T10:06:56.695Z,36.04
2018-07-04T10:09:42.571Z,33.41
2018-07-04T10:12:28.254Z,34.74
2018-07-04T10:15:13.696Z,36.25
2018-07-04T10:17:59.240Z,34.43
2018-07-04T10:20:45.567Z,34.31
2018-07-04T10:23:25.402Z,35.07
2018-07-04T10:26:11.588Z,35.74
2018-07-04T10:28:57.173Z,35.81
2018-07-04T10:31:42.998Z,35.13
2018-07-04T10:34:28.741Z,36.47
2018-07-04T10:37:14.407Z,34.87
2018-07-04T10:39:54.234Z,34.47
2018-07-04T10:42:39.827Z,34.13
2018-07-04T10:45:31.645Z,33.80
2018-07-04T10:48:17.298Z,35.95
2018-07-04T10:51:02.855Z,34.54
2018-07-04T10:53:48.503Z,34.55
2018-07-04T10:56:34.211Z,33.94
2018-07-04T10:59:14.103Z,33.89
2018-07-04T11:01:59.903Z,35.11
2018-07-04T11:04:45.520Z,35.47
2018-07-04T11:07:31.315Z,34.71
2018-07-04T11:10:17.084Z,36.81
2018-07-04T11:13:02.936Z,37.25
2018-07-04T11:15:48.570Z,36.48
2018-07-04T11:18:34.297Z,36.49
2018-07-04T11:21:20.028Z,34.51
2018-07-04T11:24:05.759Z,34.71
2018-07-04T11:26:51.491Z,36.26
2018-07-04T11:29:37.598Z,34.94
2018-07-04T11:32:23.128Z,33.97
2018-07-04T11:35:08.816Z,34.38
2018-07-04T11:37:54.339Z,34.71
2018-07-04T11:40:34.189Z,34.35
2018-07-04T11:43:20.084Z,34.56
2018-07-04T11:45:59.742Z,34.01
2018-07-04T11:48:27.363Z,33.44
2018-07-04T11:50:55.374Z,33.97
2018-07-04T11:53:22.564Z,33.03
2018-07-04T11:55:49.867Z,34.35
2018-07-04T11:58:16.938Z,33.54
2018-07-04T12:00:44.616Z,34.25
2018-07-04T12:03:16.556Z,34.98
2018-07-04T12:06:02.325Z,33.69
2018-07-04T12:08:29.328Z,34.60
2018-07-04T12:10:56.893Z,34.59
2018-07-04T12:13:25.143Z,33.75
2018-07-04T12:15:52.547Z,32.31
2018-07-04T12:18:19.480Z,33.00
2018-07-04T12:20:46.498Z,33.38
2018-07-04T12:23:14.011Z,33.09
2018-07-04T12:25:41.877Z,33.25
2018-07-04T12:28:08.844Z,34.02
2018-07-04T12:30:35.812Z,32.93
2018-07-04T12:33:03.163Z,33.22
2018-07-04T12:35:30.169Z,33.98
2018-07-04T12:37:57.158Z,33.37
2018-07-04T12:40:24.244Z,33.29
2018-07-04T12:42:51.162Z,33.48
2018-07-04T12:45:24.335Z,33.66
2018-07-04T12:47:51.402Z,33.13
2018-07-04T12:50:31.967Z,33.94
2018-07-04T12:52:58.939Z,32.33
2018-07-04T12:55:44.555Z,31.85
2018-07-04T12:58:30.416Z,31.73
2018-07-04T13:01:16.172Z,31.36
2018-07-04T13:03:56.103Z,30.04
2018-07-04T13:06:41.759Z,29.93
2018-07-04T13:09:27.240Z,30.08
2018-07-04T13:12:13.090Z,29.83
2018-07-04T13:14:58.652Z,30.94
2018-07-04T13:17:44.384Z,30.75
2018-07-04T13:20:30.258Z,30.88
2018-07-04T13:23:16.028Z,30.10
2018-07-04T13:26:01.792Z,29.93
2018-07-04T13:28:47.447Z,30.13
2018-07-04T13:31:33.087Z,29.75
2018-07-04T13:34:18.868Z,29.41
2018-07-04T13:37:04.712Z,29.34
2018-07-04T13:39:50.371Z,29.48
2018-07-04T13:42:30.246Z,29.24
2018-07-04T13:45:16.055Z,28.02
2018-07-04T13:48:01.589Z,28.58
2018-07-04T13:50:41.400Z,30.19
2018-07-04T13:53:27.244Z,31.07
2018-07-04T13:56:12.911Z,30.19
2018-07-04T13:58:58.738Z,30.54
2018-07-04T14:01:44.423Z,30.62
2018-07-04T14:04:30.043Z,30.34
2018-07-04T14:07:15.900Z,29.75
2018-07-04T14:10:01.335Z,29.62
2018-07-04T14:12:41.258Z,30.21
2018-07-04T14:15:26.856Z,30.69
2018-07-04T14:18:12.403Z,30.27
2018-07-04T14:20:58.175Z,31.06
2018-07-04T14:23:43.832Z,31.05
2018-07-04T14:26:29.502Z,31.14
2018-07-04T14:29:15.189Z,30.91
2018-07-04T14:31:55.043Z,30.81
2018-07-04T14:34:34.836Z,30.45
2018-07-04T14:37:20.366Z,30.99
2018-07-04T14:40:06.011Z,30.65
2018-07-04T14:42:51.567Z,31.93
2018-07-04T14:45:43.143Z,31.80
2018-07-04T14:48:28.475Z,32.19
2018-07-04T14:51:14.511Z,32.35
2018-07-04T14:54:00.371Z,31.64
2018-07-04T14:56:45.856Z,31.94
2018-07-04T14:59:31.503Z,32.34
2018-07-04T15:02:17.128Z,31.29
2018-07-04T15:05:02.544Z,31.89
2018-07-04T15:07:48.068Z,31.94
2018-07-04T15:10:33.724Z,32.07
2018-07-04T15:13:19.380Z,32.56
2018-07-04T15:16:04.901Z,32.82
2018-07-04T15:18:44.727Z,31.96
2018-07-04T15:21:30.371Z,31.42
2018-07-04T15:24:16.147Z,32.23
2018-07-04T15:27:01.697Z,32.95
2018-07-04T15:29:41.606Z,31.91
2018-07-04T15:32:27.309Z,31.94
2018-07-04T15:35:12.912Z,32.99
2018-07-04T15:37:58.598Z,31.85
2018-07-04T15:40:44.124Z,32.32
2018-07-04T15:43:29.716Z,32.36
2018-07-04T15:46:15.428Z,31.73
2018-07-04T15:49:00.980Z,32.80
2018-07-04T15:51:46.655Z,33.17
2018-07-04T15:54:32.197Z,32.00
2018-07-04T15:57:17.909Z,32.31
2018-07-04T16:00:03.408Z,32.44
2018-07-04T16:02:49.008Z,32.12
2018-07-04T16:05:34.643Z,32.20
2018-07-04T16:08:20.604Z,32.28
2018-07-04T16:11:06.426Z,32.04
2018-07-04T16:13:52.248Z,32.36
2018-07-04T16:16:37.968Z,32.04
2018-07-04T16:19:23.578Z,31.76
2018-07-04T16:22:03.746Z,32.11
2018-07-04T16:24:43.686Z,31.37
2018-07-04T16:27:29.288Z,31.89
2018-07-04T16:30:15.077Z,31.33
2018-07-04T16:32:55.077Z,32.15
2018-07-04T16:35:40.951Z,32.58
2018-07-04T16:38:26.546Z,32.30
2018-07-04T16:41:06.461Z,32.02
2018-07-04T16:43:52.155Z,32.50
2018-07-04T16:46:37.891Z,32.85
2018-07-04T16:49:23.557Z,32.96
2018-07-04T16:52:09.118Z,32.48
2018-07-04T16:54:54.919Z,32.91
2018-07-04T16:57:40.519Z,33.46
2018-07-04T17:00:26.128Z,34.36
2018-07-04T17:03:11.826Z,34.77
2018-07-04T17:05:57.534Z,38.08
2018-07-04T17:08:43.186Z,38.54
2018-07-04T17:11:29.008Z,39.92
2018-07-04T17:14:14.635Z,41.85
2018-07-04T17:17:00.437Z,42.32
2018-07-04T17:19:45.934Z,42.61
2018-07-04T17:22:31.742Z,43.58
2018-07-04T17:25:17.499Z,44.03
2018-07-04T17:28:03.017Z,44.33
2018-07-04T17:30:48.708Z,44.83
2018-07-04T17:33:34.527Z,45.25
2018-07-04T17:36:14.384Z,45.70
2018-07-04T17:39:00.139Z,46.22
2018-07-04T17:41:45.907Z,46.43
2018-07-04T17:44:31.568Z,47.18
2018-07-04T17:47:17.212Z,47.84
2018-07-04T17:50:02.981Z,48.05
2018-07-04T17:52:48.848Z,47.59
2018-07-04T17:55:28.788Z,48.22
2018-07-04T17:58:14.616Z,47.71
2018-07-04T18:01:00.456Z,48.31
2018-07-04T18:03:45.850Z,48.25
2018-07-04T18:06:31.376Z,48.68
2018-07-04T18:09:17.100Z,49.00
2018-07-04T18:12:02.803Z,50.40
2018-07-04T18:14:48.352Z,50.91
2018-07-04T18:17:34.351Z,52.20
2018-07-04T18:20:20.107Z,52.70
2018-07-04T18:23:05.937Z,52.60
2018-07-04T18:25:51.421Z,53.25
2018-07-04T18:28:37.308Z,53.46
2018-07-04T18:31:23.052Z,54.10
2018-07-04T18:34:08.896Z,54.57
2018-07-04T18:36:54.482Z,55.19
2018-07-04T18:39:40.009Z,55.73
2018-07-04T18:42:25.863Z,56.03
2018-07-04T18:45:11.508Z,56.01
2018-07-04T18:47:57.482Z,56.59
2018-07-04T18:50:43.219Z,56.66
2018-07-04T18:53:28.791Z,56.24
2018-07-04T18:56:14.833Z,57.08
2018-07-04T18:59:01.301Z,58.35
2018-07-04T19:01:46.911Z,58.78
2018-07-04T19:04:32.582Z,58.71
2018-07-04T19:07:18.281Z,59.05
2018-07-04T19:10:05.539Z,59.90
2018-07-04T19:12:51.094Z,60.39
2018-07-04T19:15:36.761Z,60.99
2018-07-04T19:18:16.548Z,60.54
2018-07-04T19:21:02.193Z,61.72
2018-07-04T19:23:47.900Z,61.37
2018-07-04T19:26:33.588Z,61.44
2018-07-04T19:29:13.358Z,61.85
2018-07-04T19:31:58.748Z,62.07
2018-07-04T19:34:44.261Z,61.96
2018-07-04T19:37:30.007Z,62.32
2018-07-04T19:40:15.756Z,62.68
2018-07-04T19:42:55.688Z,63.42
2018-07-04T19:45:47.264Z,63.35
2018-07-04T19:48:32.932Z,63.98
2018-07-04T19:51:18.659Z,64.18
2018-07-04T19:54:04.252Z,64.08
2018-07-04T19:56:50.070Z,64.30
2018-07-04T19:59:35.636Z,63.76
2018-07-04T20:02:21.319Z,64.33
2018-07-04T20:05:07.139Z,64.80
2018-07-04T20:07:52.871Z,65.01
2018-07-04T20:10:38.716Z,65.02
2018-07-04T20:13:18.713Z,65.47
2018-07-04T20:16:04.452Z,65.59
2018-07-04T20:18:44.181Z,66.71
2018-07-04T20:21:29.773Z,66.87
2018-07-04T20:24:15.427Z,66.65
2018-07-04T20:27:01.056Z,67.16
2018-07-04T20:29:46.711Z,67.82
2018-07-04T20:32:32.650Z,68.38
2018-07-04T20:35:18.182Z,67.78
2018-07-04T20:38:03.875Z,68.59
2018-07-04T20:40:49.633Z,68.26
2018-07-04T20:43:35.398Z,68.46
2018-07-04T20:46:20.949Z,68.90
2018-07-04T20:49:06.740Z,68.86
2018-07-04T20:51:46.657Z,69.76
2018-07-04T20:54:32.347Z,69.72
2018-07-04T20:57:18.275Z,69.53
2018-07-04T21:00:04.082Z,69.77
2018-07-04T21:02:50.483Z,69.35
2018-07-04T21:05:36.247Z,70.22
2018-07-04T21:08:15.898Z,70.86
2018-07-04T21:10:55.769Z,69.96
2018-07-04T21:13:41.413Z,70.46
2018-07-04T21:16:27.251Z,70.61
2018-07-04T21:19:12.724Z,70.65
2018-07-04T21:21:58.413Z,70.28
2018-07-04T21:24:44.155Z,71.29
2018-07-04T21:27:29.966Z,71.36
2018-07-04T21:30:10.165Z,70.83
2018-07-04T21:32:55.892Z,71.89
2018-07-04T21:35:41.612Z,73.20
2018-07-04T21:38:27.501Z,71.99
2018-07-04T21:41:13.443Z,72.22
2018-07-04T21:43:59.111Z,71.76
2018-07-04T21:46:44.805Z,71.90
2018-07-04T21:49:30.832Z,72.53
2018-07-04T21:52:10.913Z,72.80
2018-07-04T21:54:56.705Z,71.96
2018-07-04T21:57:42.253Z,72.72
2018-07-04T22:00:28.228Z,72.73
2018-07-04T22:03:13.993Z,73.20
2018-07-04T22:05:59.626Z,74.00
2018-07-04T22:08:45.289Z,73.06
2018-07-04T22:11:31.064Z,74.40
2018-07-04T22:14:16.775Z,73.88
2018-07-04T22:17:02.591Z,73.17
2018-07-04T22:19:48.154Z,73.27
2018-07-04T22:22:34.026Z,73.24
2018-07-04T22:25:19.719Z,73.24
2018-07-04T22:28:05.256Z,73.15
2018-07-04T22:30:50.973Z,72.85
2018-07-04T22:33:36.866Z,74.33
2018-07-04T22:36:22.681Z,73.98
2018-07-04T22:39:04.142Z,73.09
2018-07-04T22:41:49.731Z,73.58
2018-07-04T22:44:35.609Z,73.73
2018-07-04T22:47:21.272Z,74.07
2018-07-04T22:50:06.956Z,74.75
2018-07-04T22:52:52.569Z,74.60
2018-07-04T22:55:38.415Z,74.37
2018-07-04T22:58:24.239Z,74.11
2018-07-04T23:01:10.049Z,75.35
2018-07-04T23:03:56.043Z,75.43
2018-07-04T23:06:41.701Z,76.76
2018-07-04T23:09:27.475Z,76.84
2018-07-04T23:12:13.265Z,77.41
2018-07-04T23:14:59.015Z,78.05
2018-07-04T23:17:44.980Z,77.58
2018-07-04T23:20:30.691Z,77.59
2018-07-04T23:23:10.548Z,78.33
2018-07-04T23:25:50.346Z,77.83
2018-07-04T23:28:35.957Z,78.59
2018-07-04T23:31:21.553Z,78.47
2018-07-04T23:34:01.436Z,78.23
2018-07-04T23:36:47.072Z,79.34
2018-07-04T23:39:32.800Z,79.16
2018-07-04T23:42:18.683Z,79.04
2018-07-04T23:45:04.441Z,77.82
2018-07-04T23:47:50.043Z,78.89
2018-07-04T23:50:35.737Z,78.94
2018-07-04T23:53:15.498Z,79.12
2018-07-04T23:56:01.055Z,78.80
2018-07-04T23:58:41.011Z,78.91
